Miami, Missouri
Current Conditions -  °F | °C
As of 2:15 PM on Thursday 27 Nov 2014 (Local Time) from KMHL Reporting Station
Overcast Overcast  
Wind Chill: 24°   Ceiling: 7500
Heat Index: 32°   Visibility: 10mi
Dew Point: 25°   Wind: 9mph
Humidity: 75%   Direction: 300°WNW
Pressure: 30.49"   Gusts: NA
Location:  39.32°N, 93.23°W
Report Text: KMHL 272015Z AUTO 30008KT 10SM OVC075 00/M04 A3049 RMK AO2
Loading
Personal Weather Stations






























Interactive Weather Map New forecast layout! Learn more

10-Day Weather Forecast

Advertisements
Track Severe Weather on mobile